createdAt,value
2023-08-26T00:01:37.134Z,6.53
2023-08-26T00:04:04.286Z,6.20
2023-08-26T00:06:31.116Z,6.13
2023-08-26T00:08:57.922Z,5.70
2023-08-26T00:11:25.039Z,5.85
2023-08-26T00:13:51.747Z,5.82
2023-08-26T00:16:18.640Z,6.00
2023-08-26T00:18:47.458Z,5.75
2023-08-26T00:21:17.266Z,5.90
2023-08-26T00:23:43.998Z,5.90
2023-08-26T00:26:12.406Z,6.13
2023-08-26T00:28:39.259Z,6.32
2023-08-26T00:31:06.140Z,5.45
2023-08-26T00:33:32.989Z,5.72
2023-08-26T00:35:59.800Z,5.53
2023-08-26T00:38:26.576Z,5.78
2023-08-26T00:40:53.449Z,5.72
2023-08-26T00:43:20.178Z,6.40
2023-08-26T00:45:49.623Z,5.78
2023-08-26T00:48:17.224Z,5.55
2023-08-26T00:50:45.546Z,5.90
2023-08-26T00:53:13.697Z,5.63
2023-08-26T00:55:44.358Z,5.28
2023-08-26T00:58:12.252Z,5.80
2023-08-26T01:00:40.797Z,5.63
2023-08-26T01:03:08.428Z,5.38
2023-08-26T01:05:35.675Z,6.05
2023-08-26T01:08:05.120Z,6.00
2023-08-26T01:11:10.359Z,5.45
2023-08-26T01:14:19.545Z,5.80
2023-08-26T01:16:46.486Z,6.05
2023-08-26T01:19:38.842Z,5.78
2023-08-26T01:22:10.138Z,5.70
2023-08-26T01:24:40.861Z,5.47
2023-08-26T01:27:08.569Z,6.18
2023-08-26T01:29:36.800Z,5.80
2023-08-26T01:32:16.371Z,6.28
2023-08-26T01:34:47.631Z,6.15
2023-08-26T01:37:15.365Z,5.82
2023-08-26T01:39:42.939Z,5.85
2023-08-26T01:42:13.995Z,5.72
2023-08-26T01:44:42.716Z,5.85
2023-08-26T01:47:09.577Z,6.13
2023-08-26T01:49:36.347Z,6.00
2023-08-26T01:52:03.209Z,6.18
2023-08-26T01:54:29.989Z,5.72
2023-08-26T01:56:56.798Z,6.38
2023-08-26T01:59:23.546Z,6.50
2023-08-26T02:01:50.423Z,6.03
2023-08-26T02:04:17.585Z,6.50
2023-08-26T02:06:44.512Z,6.60
2023-08-26T02:09:11.231Z,6.57
2023-08-26T02:11:38.070Z,6.20
2023-08-26T02:14:04.844Z,6.38
2023-08-26T02:16:31.724Z,6.15
2023-08-26T02:18:58.795Z,6.15
2023-08-26T02:21:25.792Z,6.63
2023-08-26T02:23:52.526Z,6.47
2023-08-26T02:26:19.261Z,6.20
2023-08-26T02:28:46.017Z,6.90
2023-08-26T02:31:12.904Z,7.10
2023-08-26T02:33:39.757Z,6.95
2023-08-26T02:36:06.560Z,6.30
2023-08-26T02:38:33.470Z,6.93
2023-08-26T02:41:01.339Z,6.70
2023-08-26T02:43:28.129Z,7.18
2023-08-26T02:45:56.399Z,6.90
2023-08-26T02:48:24.444Z,6.78
2023-08-26T02:50:58.991Z,6.47
2023-08-26T02:53:27.115Z,6.40
2023-08-26T02:55:54.720Z,7.03
2023-08-26T02:58:22.222Z,7.57
2023-08-26T03:00:49.343Z,7.13
2023-08-26T03:03:16.594Z,6.57
2023-08-26T03:05:43.549Z,6.53
2023-08-26T03:08:10.393Z,7.15
2023-08-26T03:10:37.204Z,7.07
2023-08-26T03:13:04.067Z,8.20
2023-08-26T03:15:31.341Z,7.25
2023-08-26T03:17:59.017Z,7.05
2023-08-26T03:20:26.189Z,6.68
2023-08-26T03:22:52.987Z,6.95
2023-08-26T03:25:19.863Z,7.50
2023-08-26T03:27:46.617Z,7.45
2023-08-26T03:30:13.643Z,7.05
2023-08-26T03:32:40.528Z,7.30
2023-08-26T03:35:08.775Z,6.82
2023-08-26T03:37:35.563Z,6.85
2023-08-26T03:40:06.348Z,7.00
2023-08-26T03:42:33.116Z,6.82
2023-08-26T03:44:59.945Z,7.13
2023-08-26T03:47:27.104Z,6.05
2023-08-26T03:49:54.086Z,6.65
2023-08-26T03:52:20.979Z,6.38
2023-08-26T03:54:49.594Z,7.40
2023-08-26T03:57:17.959Z,6.70
2023-08-26T03:59:45.284Z,7.75
2023-08-26T04:02:12.104Z,6.93
2023-08-26T04:04:38.873Z,6.78
2023-08-26T04:07:05.666Z,7.35
2023-08-26T04:09:32.434Z,7.13
2023-08-26T04:11:59.596Z,7.05
2023-08-26T04:14:26.362Z,7.28
2023-08-26T04:16:53.170Z,6.88
2023-08-26T04:19:19.917Z,7.07
2023-08-26T04:21:46.706Z,6.78
2023-08-26T04:24:13.600Z,6.82
2023-08-26T04:26:40.532Z,7.20
2023-08-26T04:29:08.113Z,6.95
2023-08-26T04:31:35.029Z,6.82
2023-08-26T04:34:01.883Z,6.70
2023-08-26T04:36:28.700Z,6.75
2023-08-26T04:38:55.397Z,7.90
2023-08-26T04:41:22.172Z,6.95
2023-08-26T04:43:50.010Z,7.10
2023-08-26T04:46:16.839Z,7.15
2023-08-26T04:48:43.642Z,7.20
2023-08-26T04:51:10.439Z,7.55
2023-08-26T04:53:37.269Z,6.75
2023-08-26T04:56:04.472Z,6.97
2023-08-26T04:58:32.200Z,7.38
2023-08-26T05:00:59.078Z,7.28
2023-08-26T05:03:25.962Z,7.38
2023-08-26T05:05:53.165Z,7.30
2023-08-26T05:08:19.960Z,7.47
2023-08-26T05:10:46.722Z,7.55
2023-08-26T05:13:13.638Z,7.50
2023-08-26T05:15:40.506Z,7.32
2023-08-26T05:18:08.021Z,7.35
2023-08-26T05:20:35.181Z,6.97
2023-08-26T05:23:02.121Z,6.68
2023-08-26T05:25:28.940Z,6.82
2023-08-26T05:27:55.947Z,7.25
2023-08-26T05:30:23.289Z,6.78
2023-08-26T05:32:50.127Z,7.40
2023-08-26T05:35:17.033Z,6.60
2023-08-26T05:37:46.356Z,6.55
2023-08-26T05:40:14.090Z,7.72
2023-08-26T05:42:41.842Z,7.15
2023-08-26T05:45:09.584Z,6.72
2023-08-26T05:47:36.921Z,7.18
2023-08-26T05:50:05.430Z,7.00
2023-08-26T05:52:32.279Z,7.55
2023-08-26T05:54:59.009Z,7.18
2023-08-26T05:57:26.610Z,6.82
2023-08-26T05:59:53.503Z,7.15
2023-08-26T06:02:20.366Z,6.55
2023-08-26T06:04:47.217Z,6.65
2023-08-26T06:07:14.130Z,7.35
2023-08-26T06:09:41.162Z,7.53
2023-08-26T06:12:08.399Z,6.97
2023-08-26T06:14:35.265Z,7.88
2023-08-26T06:17:02.124Z,7.43
2023-08-26T06:19:30.258Z,7.15
2023-08-26T06:21:57.444Z,6.95
2023-08-26T06:24:24.135Z,7.47
2023-08-26T06:26:51.688Z,7.10
2023-08-26T06:29:21.155Z,7.00
2023-08-26T06:31:47.893Z,7.03
2023-08-26T06:34:16.802Z,6.93
2023-08-26T06:36:46.099Z,7.18
2023-08-26T06:39:13.276Z,7.55
2023-08-26T06:41:40.078Z,7.28
2023-08-26T06:44:07.427Z,6.90
2023-08-26T06:46:34.227Z,7.47
2023-08-26T06:49:01.103Z,7.13
2023-08-26T06:51:27.866Z,7.35
2023-08-26T06:53:54.664Z,6.60
2023-08-26T06:56:21.441Z,7.22
2023-08-26T06:58:48.144Z,7.45
2023-08-26T07:01:14.875Z,7.68
2023-08-26T07:03:41.713Z,7.25
2023-08-26T07:06:08.508Z,7.53
2023-08-26T07:08:35.214Z,7.63
2023-08-26T07:11:02.571Z,7.28
2023-08-26T07:13:29.327Z,6.90
2023-08-26T07:15:56.068Z,7.32
2023-08-26T07:18:23.371Z,6.82
2023-08-26T07:20:50.289Z,8.05
2023-08-26T07:23:17.008Z,7.55
2023-08-26T07:25:43.795Z,7.70
2023-08-26T07:28:10.516Z,7.45
2023-08-26T07:30:37.352Z,7.07
2023-08-26T07:33:04.363Z,7.60
2023-08-26T07:35:31.223Z,6.85
2023-08-26T07:37:58.159Z,7.72
2023-08-26T07:40:25.549Z,6.22
2023-08-26T07:42:52.352Z,6.93
2023-08-26T07:45:19.145Z,6.47
2023-08-26T07:50:15.729Z,7.15
2023-08-26T07:52:42.554Z,7.47
2023-08-26T07:55:10.263Z,6.80
2023-08-26T07:57:37.092Z,7.10
2023-08-26T08:00:04.677Z,7.13
2023-08-26T08:02:32.751Z,6.90
2023-08-26T08:04:59.538Z,7.53
2023-08-26T08:07:26.394Z,7.10
2023-08-26T08:09:54.672Z,6.50
2023-08-26T08:12:21.584Z,7.22
2023-08-26T08:14:48.373Z,6.68
2023-08-26T08:17:15.476Z,7.07
2023-08-26T08:19:46.621Z,6.40
2023-08-26T08:22:20.101Z,7.65
2023-08-26T08:24:47.824Z,6.97
2023-08-26T08:27:14.574Z,7.03
2023-08-26T08:29:41.335Z,6.90
2023-08-26T08:32:08.040Z,6.40
2023-08-26T08:34:34.854Z,7.38
2023-08-26T08:37:01.724Z,7.10
2023-08-26T08:39:28.445Z,6.70
2023-08-26T08:41:56.590Z,6.85
2023-08-26T08:44:26.296Z,7.55
2023-08-26T08:46:53.896Z,7.50
2023-08-26T08:49:20.910Z,6.90
2023-08-26T08:51:49.861Z,6.57
2023-08-26T08:54:17.239Z,7.40
2023-08-26T08:56:44.862Z,7.05
2023-08-26T08:59:12.895Z,7.20
2023-08-26T09:01:40.502Z,6.80
2023-08-26T09:04:09.029Z,7.10
2023-08-26T09:06:36.339Z,7.65
2023-08-26T09:09:03.550Z,7.28
2023-08-26T09:11:32.465Z,7.30
2023-08-26T09:14:00.219Z,7.47
2023-08-26T09:16:35.116Z,7.10
2023-08-26T09:19:02.446Z,7.28
2023-08-26T09:21:29.320Z,7.95
2023-08-26T09:23:56.782Z,7.65
2023-08-26T09:26:27.777Z,7.30
2023-08-26T09:28:54.592Z,7.28
2023-08-26T09:31:21.775Z,7.40
2023-08-26T09:34:00.191Z,7.25
2023-08-26T09:36:42.948Z,7.57
2023-08-26T09:39:14.310Z,8.00
2023-08-26T09:41:46.411Z,8.25
2023-08-26T09:44:15.701Z,7.57
2023-08-26T09:46:43.511Z,7.57
2023-08-26T09:49:14.754Z,7.60
2023-08-26T09:51:50.258Z,7.65
2023-08-26T09:54:22.826Z,7.55
2023-08-26T09:56:50.961Z,7.53
2023-08-26T09:59:18.895Z,7.50
2023-08-26T10:01:46.667Z,7.45
2023-08-26T10:04:23.363Z,7.78
2023-08-26T10:06:56.875Z,7.53
2023-08-26T10:09:51.258Z,7.53
2023-08-26T10:12:31.932Z,7.38
2023-08-26T10:15:02.113Z,8.20
2023-08-26T10:17:32.183Z,7.05
2023-08-26T10:19:59.284Z,7.25
2023-08-26T10:22:27.004Z,7.32
2023-08-26T10:24:54.488Z,7.75
2023-08-26T10:27:21.398Z,7.97
2023-08-26T10:29:49.122Z,7.50
2023-08-26T10:32:20.598Z,7.68
2023-08-26T10:35:00.791Z,7.05
2023-08-26T10:37:32.736Z,7.63
2023-08-26T10:40:10.716Z,7.95
2023-08-26T10:42:38.196Z,7.57
2023-08-26T10:45:17.010Z,7.55
2023-08-26T10:47:52.165Z,7.78
2023-08-26T10:50:24.050Z,7.47
2023-08-26T10:53:00.823Z,7.60
2023-08-26T10:55:31.152Z,7.72
2023-08-26T10:58:14.536Z,7.63
2023-08-26T11:00:44.060Z,7.40
2023-08-26T11:03:12.284Z,7.60
2023-08-26T11:05:43.471Z,7.75
2023-08-26T11:08:10.971Z,7.35
2023-08-26T11:10:40.587Z,7.22
2023-08-26T11:13:08.567Z,7.68
2023-08-26T11:15:40.481Z,7.40
2023-08-26T11:18:08.877Z,7.65
2023-08-26T11:20:36.476Z,7.90
2023-08-26T11:23:05.932Z,7.53
2023-08-26T11:25:35.014Z,7.32
2023-08-26T11:28:09.778Z,6.82
2023-08-26T11:33:12.849Z,7.47
2023-08-26T11:35:47.109Z,7.25
2023-08-26T11:38:17.543Z,7.53
2023-08-26T11:40:44.539Z,7.45
2023-08-26T11:43:16.046Z,7.25
2023-08-26T11:45:51.252Z,7.68
2023-08-26T11:48:18.318Z,7.32
2023-08-26T11:50:47.267Z,6.85
2023-08-26T11:53:14.182Z,7.10
2023-08-26T11:55:41.243Z,7.05
2023-08-26T11:58:08.632Z,7.55
2023-08-26T12:00:38.044Z,7.43
2023-08-26T12:03:07.317Z,7.10
2023-08-26T12:05:50.973Z,7.65
2023-08-26T12:08:20.300Z,7.40
2023-08-26T12:10:48.913Z,7.30
2023-08-26T12:13:17.035Z,7.13
2023-08-26T12:15:44.462Z,7.18
2023-08-26T12:18:11.446Z,6.90
2023-08-26T12:20:39.733Z,7.35
2023-08-26T12:23:07.660Z,6.88
2023-08-26T12:25:41.147Z,7.28
2023-08-26T12:28:13.735Z,7.38
2023-08-26T12:30:43.374Z,6.80
2023-08-26T12:33:22.676Z,6.80
2023-08-26T12:35:54.710Z,7.22
2023-08-26T12:38:22.229Z,8.00
2023-08-26T12:40:50.141Z,6.70
2023-08-26T12:43:17.429Z,7.30
2023-08-26T12:45:44.417Z,6.63
2023-08-26T12:48:11.674Z,7.22
2023-08-26T12:50:39.044Z,7.40
2023-08-26T12:53:05.943Z,6.80
2023-08-26T12:55:32.951Z,7.30
2023-08-26T12:58:00.198Z,7.28
2023-08-26T13:00:27.496Z,7.10
2023-08-26T13:02:54.435Z,7.05
2023-08-26T13:05:21.320Z,6.45
2023-08-26T13:07:48.056Z,6.97
2023-08-26T13:10:14.803Z,7.15
2023-08-26T13:12:44.290Z,7.28
2023-08-26T13:15:14.438Z,6.80
2023-08-26T13:17:41.209Z,7.80
2023-08-26T13:20:11.146Z,7.07
2023-08-26T13:22:37.948Z,7.68
2023-08-26T13:25:05.415Z,6.90
2023-08-26T13:27:32.888Z,7.38
2023-08-26T13:29:59.625Z,7.28
2023-08-26T13:32:26.367Z,8.30
2023-08-26T13:34:53.230Z,7.65
2023-08-26T13:37:19.993Z,8.02
2023-08-26T13:39:46.769Z,7.82
2023-08-26T13:42:13.613Z,7.78
2023-08-26T13:44:40.383Z,8.20
2023-08-26T13:47:07.614Z,7.95
2023-08-26T13:49:34.398Z,8.05
2023-08-26T13:52:01.405Z,7.57
2023-08-26T13:54:28.204Z,8.00
2023-08-26T13:56:54.953Z,8.50
2023-08-26T13:59:23.964Z,8.00
2023-08-26T14:01:51.019Z,8.20
2023-08-26T14:04:18.810Z,21.27
2023-08-26T14:06:45.526Z,8.88
2023-08-26T14:09:12.299Z,4.72
2023-08-26T14:11:39.600Z,5.78
2023-08-26T14:14:06.534Z,4.10
2023-08-26T14:16:33.439Z,3.20
2023-08-26T14:19:01.531Z,5.85
2023-08-26T14:21:29.026Z,6.80
2023-08-26T14:23:55.904Z,7.32
2023-08-26T14:26:22.759Z,8.20
2023-08-26T14:28:49.621Z,6.82
2023-08-26T14:31:16.497Z,5.00
2023-08-26T14:33:45.026Z,5.40
2023-08-26T14:36:11.737Z,5.13
2023-08-26T14:38:39.957Z,4.07
2023-08-26T14:41:07.538Z,3.75
2023-08-26T14:43:34.326Z,4.28
2023-08-26T14:46:01.117Z,4.50
2023-08-26T14:48:30.922Z,4.70
2023-08-26T14:50:58.697Z,5.05
2023-08-26T14:53:25.524Z,4.05
2023-08-26T14:55:58.134Z,4.57
2023-08-26T14:58:25.740Z,4.68
2023-08-26T15:00:55.788Z,4.32
2023-08-26T15:03:23.426Z,4.20
2023-08-26T15:06:04.695Z,3.47
2023-08-26T15:08:31.626Z,3.72
2023-08-26T15:10:58.710Z,3.63
2023-08-26T15:13:25.450Z,3.50
2023-08-26T15:15:53.106Z,3.65
2023-08-26T15:18:20.707Z,3.92
2023-08-26T15:20:49.495Z,4.50
2023-08-26T15:23:17.436Z,4.13
2023-08-26T15:25:46.240Z,3.47
2023-08-26T15:28:14.597Z,3.20
2023-08-26T15:30:50.775Z,3.28
2023-08-26T15:33:18.198Z,3.42
2023-08-26T15:35:52.780Z,3.00
2023-08-26T15:38:20.160Z,2.72
2023-08-26T15:40:58.219Z,3.15
2023-08-26T15:43:25.978Z,3.72
2023-08-26T15:45:53.494Z,3.72
2023-08-26T15:48:21.348Z,2.60
2023-08-26T15:50:48.162Z,3.08
2023-08-26T15:53:16.071Z,2.42
2023-08-26T15:55:42.990Z,2.55
2023-08-26T15:58:11.212Z,2.22
2023-08-26T16:00:38.583Z,2.17
2023-08-26T16:03:06.808Z,2.10
2023-08-26T16:05:38.027Z,1.88
2023-08-26T16:08:05.908Z,1.92
2023-08-26T16:10:33.279Z,1.80
2023-08-26T16:13:00.293Z,1.75
2023-08-26T16:15:27.397Z,2.20
2023-08-26T16:17:54.535Z,2.00
2023-08-26T16:20:21.442Z,2.15
2023-08-26T16:22:48.454Z,2.80
2023-08-26T16:25:15.318Z,3.65
2023-08-26T16:27:42.200Z,3.40
2023-08-26T16:30:10.110Z,4.65
2023-08-26T16:32:36.942Z,6.07
2023-08-26T16:35:05.060Z,4.20
2023-08-26T16:37:34.205Z,3.90
2023-08-26T16:40:01.801Z,3.63
2023-08-26T16:42:28.768Z,3.03
2023-08-26T16:44:55.900Z,2.95
2023-08-26T16:47:23.171Z,2.58
2023-08-26T16:49:50.501Z,2.50
2023-08-26T16:52:19.709Z,3.20
2023-08-26T16:54:50.181Z,2.97
2023-08-26T16:57:18.197Z,3.35
2023-08-26T16:59:45.213Z,3.35
2023-08-26T17:02:12.392Z,3.70
2023-08-26T17:04:39.253Z,2.80
2023-08-26T17:07:06.946Z,3.17
2023-08-26T17:09:34.309Z,3.88
2023-08-26T17:12:01.216Z,3.58
2023-08-26T17:14:28.024Z,2.90
2023-08-26T17:16:55.511Z,2.90
2023-08-26T17:19:22.593Z,3.33
2023-08-26T17:21:50.340Z,3.30
2023-08-26T17:24:17.463Z,3.05
2023-08-26T17:26:44.332Z,3.33
2023-08-26T17:29:11.536Z,3.00
2023-08-26T17:31:38.393Z,3.80
2023-08-26T17:34:05.367Z,4.07
2023-08-26T17:36:33.315Z,3.67
2023-08-26T17:39:00.940Z,4.45
2023-08-26T17:41:27.919Z,4.57
2023-08-26T17:43:54.766Z,4.82
2023-08-26T17:46:22.886Z,4.70
2023-08-26T17:48:50.532Z,4.57
2023-08-26T17:51:17.311Z,4.65
2023-08-26T17:53:44.607Z,5.10
2023-08-26T17:56:12.697Z,5.30
2023-08-26T17:58:40.173Z,5.05
2023-08-26T18:01:07.278Z,5.53
2023-08-26T18:03:34.348Z,5.07
2023-08-26T18:06:01.428Z,5.25
2023-08-26T18:08:28.287Z,5.40
2023-08-26T18:10:55.145Z,5.13
2023-08-26T18:13:21.838Z,6.13
2023-08-26T18:15:48.601Z,5.47
2023-08-26T18:18:15.386Z,5.80
2023-08-26T18:20:42.635Z,5.15
2023-08-26T18:23:09.441Z,5.28
2023-08-26T18:25:36.365Z,5.75
2023-08-26T18:28:03.452Z,6.03
2023-08-26T18:30:30.526Z,5.78
2023-08-26T18:32:57.559Z,6.45
2023-08-26T18:35:24.598Z,6.22
2023-08-26T18:37:51.369Z,6.50
2023-08-26T18:40:18.084Z,6.03
2023-08-26T18:42:47.593Z,5.82
2023-08-26T18:45:14.410Z,6.50
2023-08-26T18:47:41.173Z,6.22
2023-08-26T18:50:08.803Z,6.43
2023-08-26T18:52:35.663Z,6.93
2023-08-26T18:55:02.951Z,5.63
2023-08-26T18:57:29.889Z,6.25
2023-08-26T18:59:56.706Z,6.93
2023-08-26T19:02:23.467Z,6.38
2023-08-26T19:04:50.332Z,7.22
2023-08-26T19:07:17.587Z,7.95
2023-08-26T19:09:44.457Z,7.40
2023-08-26T19:12:11.254Z,8.73
2023-08-26T19:14:38.019Z,6.65
2023-08-26T19:17:04.800Z,7.03
2023-08-26T19:19:31.567Z,8.48
2023-08-26T19:21:58.981Z,7.35
2023-08-26T19:24:25.811Z,7.65
2023-08-26T19:26:54.584Z,6.95
2023-08-26T19:29:21.407Z,7.22
2023-08-26T19:31:48.302Z,6.40
2023-08-26T19:34:15.596Z,6.38
2023-08-26T19:36:43.342Z,6.72
2023-08-26T19:39:11.728Z,6.78
2023-08-26T19:41:38.914Z,7.95
2023-08-26T19:44:06.270Z,7.40
2023-08-26T19:46:33.275Z,6.47
2023-08-26T19:49:00.241Z,6.13
2023-08-26T19:51:27.676Z,6.80
2023-08-26T19:53:59.011Z,7.40
2023-08-26T19:56:26.319Z,6.05
2023-08-26T19:58:53.194Z,6.20
2023-08-26T20:01:20.644Z,6.72
2023-08-26T20:03:50.418Z,6.90
2023-08-26T20:06:17.502Z,7.22
2023-08-26T20:08:44.254Z,6.75
2023-08-26T20:11:11.098Z,6.95
2023-08-26T20:13:38.093Z,6.95
2023-08-26T20:16:04.968Z,6.88
2023-08-26T20:18:31.900Z,7.05
2023-08-26T20:20:59.631Z,6.43
2023-08-26T20:23:27.225Z,7.43
2023-08-26T20:25:58.635Z,6.80
2023-08-26T20:28:27.307Z,6.63
2023-08-26T20:31:02.387Z,6.18
2023-08-26T20:33:30.138Z,7.38
2023-08-26T20:35:59.705Z,6.88
2023-08-26T20:38:26.486Z,6.30
2023-08-26T20:40:53.233Z,6.18
2023-08-26T20:43:20.018Z,6.50
2023-08-26T20:45:46.797Z,6.93
2023-08-26T20:48:13.891Z,6.75
2023-08-26T20:50:40.574Z,6.47
2023-08-26T20:53:07.393Z,6.45
2023-08-26T20:55:34.952Z,6.82
2023-08-26T20:58:03.421Z,6.88
2023-08-26T21:00:30.717Z,7.15
2023-08-26T21:02:57.833Z,6.55
2023-08-26T21:05:25.026Z,6.88
2023-08-26T21:07:53.241Z,7.30
2023-08-26T21:10:21.359Z,6.97
2023-08-26T21:12:50.090Z,7.18
2023-08-26T21:15:17.004Z,7.18
2023-08-26T21:17:44.410Z,6.57
2023-08-26T21:20:12.344Z,6.85
2023-08-26T21:22:40.381Z,7.53
2023-08-26T21:25:08.445Z,7.03
2023-08-26T21:27:39.392Z,6.90
2023-08-26T21:30:07.374Z,8.05
2023-08-26T21:32:35.201Z,7.03
2023-08-26T21:35:02.311Z,7.53
2023-08-26T21:37:29.570Z,7.22
2023-08-26T21:39:57.124Z,7.40
2023-08-26T21:42:24.093Z,7.68
2023-08-26T21:44:51.562Z,6.80
2023-08-26T21:47:18.442Z,7.63
2023-08-26T21:49:46.526Z,7.15
2023-08-26T21:52:13.311Z,7.47
2023-08-26T21:54:40.173Z,7.18
2023-08-26T21:57:07.058Z,7.35
2023-08-26T21:59:33.887Z,7.32
2023-08-26T22:02:00.974Z,7.45
2023-08-26T22:04:29.640Z,7.28
2023-08-26T22:06:56.465Z,7.60
2023-08-26T22:09:23.539Z,7.75
2023-08-26T22:11:51.056Z,7.53
2023-08-26T22:14:17.823Z,6.97
2023-08-26T22:16:45.035Z,8.32
2023-08-26T22:19:12.484Z,7.47
2023-08-26T22:21:39.353Z,7.82
2023-08-26T22:24:06.544Z,8.63
2023-08-26T22:26:33.351Z,8.32
2023-08-26T22:29:00.329Z,7.70
2023-08-26T22:31:27.563Z,8.45
2023-08-26T22:33:54.451Z,8.77
2023-08-26T22:36:21.253Z,8.43
2023-08-26T22:38:48.017Z,8.43
2023-08-26T22:41:15.482Z,8.85
2023-08-26T22:43:45.240Z,10.02
2023-08-26T22:46:12.074Z,10.05
2023-08-26T22:48:38.876Z,10.73
2023-08-26T22:51:06.084Z,10.43
2023-08-26T22:53:32.865Z,11.07
2023-08-26T22:56:07.420Z,9.57
2023-08-26T22:58:34.357Z,9.80
2023-08-26T23:01:04.627Z,10.52
2023-08-26T23:03:31.772Z,10.73
2023-08-26T23:06:03.835Z,10.48
2023-08-26T23:08:30.642Z,10.73
2023-08-26T23:10:58.795Z,11.02
2023-08-26T23:13:25.641Z,10.88
2023-08-26T23:15:52.442Z,10.80
2023-08-26T23:18:19.299Z,9.63
2023-08-26T23:20:48.048Z,10.57
2023-08-26T23:23:15.103Z,11.07
2023-08-26T23:25:41.973Z,9.77
2023-08-26T23:28:08.868Z,9.60
2023-08-26T23:30:35.772Z,10.60
2023-08-26T23:33:03.050Z,9.35
2023-08-26T23:35:30.128Z,8.80
2023-08-26T23:37:56.796Z,8.95
2023-08-26T23:40:23.520Z,8.48
2023-08-26T23:42:50.469Z,8.77
2023-08-26T23:45:17.850Z,9.25
2023-08-26T23:47:44.792Z,8.10
2023-08-26T23:50:11.666Z,7.22
2023-08-26T23:52:38.440Z,6.68
2023-08-26T23:55:06.111Z,5.75
2023-08-26T23:57:34.982Z,5.85
